sensor_id;sensor_type;location;lat;lon;timestamp;P1;durP1;ratioP1;P2;durP2;ratioP2
7759;SDS011;3924;48.830;9.262;2023-07-02T00:02:06;1.10;;;1.03;;
7759;SDS011;3924;48.830;9.262;2023-07-02T00:04:33;1.40;;;1.00;;
7759;SDS011;3924;48.830;9.262;2023-07-02T00:07:00;1.00;;;0.90;;
7759;SDS011;3924;48.830;9.262;2023-07-02T00:09:26;1.73;;;1.10;;
7759;SDS011;3924;48.830;9.262;2023-07-02T00:11:53;2.80;;;1.47;;
7759;SDS011;3924;48.830;9.262;2023-07-02T00:14:20;1.40;;;1.13;;
7759;SDS011;3924;48.830;9.262;2023-07-02T00:16:47;1.70;;;1.40;;
7759;SDS011;3924;48.830;9.262;2023-07-02T00:19:14;1.40;;;1.30;;
7759;SDS011;3924;48.830;9.262;2023-07-02T00:21:41;3.00;;;1.50;;
7759;SDS011;3924;48.830;9.262;2023-07-02T00:24:08;1.30;;;1.20;;
7759;SDS011;3924;48.830;9.262;2023-07-02T00:26:36;1.40;;;1.00;;
7759;SDS011;3924;48.830;9.262;2023-07-02T00:29:05;1.00;;;1.00;;
7759;SDS011;3924;48.830;9.262;2023-07-02T00:31:32;1.10;;;0.80;;
7759;SDS011;3924;48.830;9.262;2023-07-02T00:34:00;0.90;;;0.90;;
7759;SDS011;3924;48.830;9.262;2023-07-02T00:36:30;3.03;;;1.20;;
7759;SDS011;3924;48.830;9.262;2023-07-02T00:38:58;1.30;;;1.20;;
7759;SDS011;3924;48.830;9.262;2023-07-02T00:41:24;1.07;;;0.97;;
7759;SDS011;3924;48.830;9.262;2023-07-02T00:43:51;1.37;;;1.27;;
7759;SDS011;3924;48.830;9.262;2023-07-02T00:46:21;1.33;;;1.13;;
7759;SDS011;3924;48.830;9.262;2023-07-02T00:48:52;1.10;;;1.10;;
7759;SDS011;3924;48.830;9.262;2023-07-02T00:51:21;1.20;;;1.00;;
7759;SDS011;3924;48.830;9.262;2023-07-02T00:53:56;1.47;;;1.37;;
7759;SDS011;3924;48.830;9.262;2023-07-02T00:56:24;1.37;;;1.27;;
7759;SDS011;3924;48.830;9.262;2023-07-02T00:58:53;1.00;;;1.00;;
7759;SDS011;3924;48.830;9.262;2023-07-02T01:01:21;2.90;;;1.20;;
7759;SDS011;3924;48.830;9.262;2023-07-02T01:06:22;1.33;;;1.23;;
7759;SDS011;3924;48.830;9.262;2023-07-02T01:08:54;3.63;;;1.13;;
7759;SDS011;3924;48.830;9.262;2023-07-02T01:11:22;1.00;;;1.00;;
7759;SDS011;3924;48.830;9.262;2023-07-02T01:13:53;1.50;;;1.40;;
7759;SDS011;3924;48.830;9.262;2023-07-02T01:16:24;0.80;;;0.80;;
7759;SDS011;3924;48.830;9.262;2023-07-02T01:18:51;2.20;;;1.20;;
7759;SDS011;3924;48.830;9.262;2023-07-02T01:21:21;1.03;;;1.00;;
7759;SDS011;3924;48.830;9.262;2023-07-02T01:23:50;3.20;;;1.07;;
7759;SDS011;3924;48.830;9.262;2023-07-02T01:26:17;0.93;;;0.90;;
7759;SDS011;3924;48.830;9.262;2023-07-02T01:28:44;3.43;;;1.67;;
7759;SDS011;3924;48.830;9.262;2023-07-02T01:31:11;2.00;;;1.30;;
7759;SDS011;3924;48.830;9.262;2023-07-02T01:33:38;4.30;;;1.20;;
7759;SDS011;3924;48.830;9.262;2023-07-02T01:36:05;1.57;;;1.37;;
7759;SDS011;3924;48.830;9.262;2023-07-02T01:38:32;1.20;;;1.00;;
7759;SDS011;3924;48.830;9.262;2023-07-02T01:40:58;1.23;;;1.00;;
7759;SDS011;3924;48.830;9.262;2023-07-02T01:43:25;0.93;;;0.93;;
7759;SDS011;3924;48.830;9.262;2023-07-02T01:45:51;1.43;;;1.10;;
7759;SDS011;3924;48.830;9.262;2023-07-02T01:48:18;0.83;;;0.83;;
7759;SDS011;3924;48.830;9.262;2023-07-02T01:50:45;1.03;;;1.03;;
7759;SDS011;3924;48.830;9.262;2023-07-02T01:53:12;1.40;;;1.30;;
7759;SDS011;3924;48.830;9.262;2023-07-02T01:55:39;1.13;;;1.10;;
7759;SDS011;3924;48.830;9.262;2023-07-02T01:58:05;3.53;;;0.97;;
7759;SDS011;3924;48.830;9.262;2023-07-02T02:00:32;1.60;;;1.10;;
7759;SDS011;3924;48.830;9.262;2023-07-02T02:02:58;1.27;;;1.10;;
7759;SDS011;3924;48.830;9.262;2023-07-02T02:05:25;1.53;;;0.90;;
7759;SDS011;3924;48.830;9.262;2023-07-02T02:07:51;2.20;;;1.20;;
7759;SDS011;3924;48.830;9.262;2023-07-02T02:10:18;2.77;;;1.40;;
7759;SDS011;3924;48.830;9.262;2023-07-02T02:12:45;4.47;;;1.40;;
7759;SDS011;3924;48.830;9.262;2023-07-02T02:15:11;1.30;;;1.10;;
7759;SDS011;3924;48.830;9.262;2023-07-02T02:17:43;1.17;;;1.10;;
7759;SDS011;3924;48.830;9.262;2023-07-02T02:20:13;5.53;;;1.13;;
7759;SDS011;3924;48.830;9.262;2023-07-02T02:22:42;4.80;;;1.47;;
7759;SDS011;3924;48.830;9.262;2023-07-02T02:25:08;2.87;;;1.40;;
7759;SDS011;3924;48.830;9.262;2023-07-02T02:27:35;0.93;;;0.93;;
7759;SDS011;3924;48.830;9.262;2023-07-02T02:30:02;2.53;;;1.07;;
7759;SDS011;3924;48.830;9.262;2023-07-02T02:32:29;1.03;;;1.03;;
7759;SDS011;3924;48.830;9.262;2023-07-02T02:34:56;0.70;;;0.70;;
7759;SDS011;3924;48.830;9.262;2023-07-02T02:37:23;3.10;;;1.00;;
7759;SDS011;3924;48.830;9.262;2023-07-02T02:39:49;6.23;;;1.17;;
7759;SDS011;3924;48.830;9.262;2023-07-02T02:42:16;1.53;;;1.00;;
7759;SDS011;3924;48.830;9.262;2023-07-02T02:44:43;1.30;;;1.20;;
7759;SDS011;3924;48.830;9.262;2023-07-02T02:47:10;1.13;;;1.13;;
7759;SDS011;3924;48.830;9.262;2023-07-02T02:49:39;1.10;;;1.10;;
7759;SDS011;3924;48.830;9.262;2023-07-02T02:52:06;1.10;;;1.00;;
7759;SDS011;3924;48.830;9.262;2023-07-02T02:54:32;2.80;;;1.03;;
7759;SDS011;3924;48.830;9.262;2023-07-02T02:56:59;6.83;;;1.13;;
7759;SDS011;3924;48.830;9.262;2023-07-02T02:59:27;0.90;;;0.90;;
7759;SDS011;3924;48.830;9.262;2023-07-02T03:01:54;3.10;;;1.50;;
7759;SDS011;3924;48.830;9.262;2023-07-02T03:04:20;1.03;;;1.03;;
7759;SDS011;3924;48.830;9.262;2023-07-02T03:06:51;1.10;;;0.83;;
7759;SDS011;3924;48.830;9.262;2023-07-02T03:09:19;0.83;;;0.83;;
7759;SDS011;3924;48.830;9.262;2023-07-02T03:11:46;1.30;;;1.20;;
7759;SDS011;3924;48.830;9.262;2023-07-02T03:14:14;1.20;;;1.20;;
7759;SDS011;3924;48.830;9.262;2023-07-02T03:16:43;1.63;;;1.10;;
7759;SDS011;3924;48.830;9.262;2023-07-02T03:19:11;1.30;;;1.10;;
7759;SDS011;3924;48.830;9.262;2023-07-02T03:21:44;3.50;;;1.37;;
7759;SDS011;3924;48.830;9.262;2023-07-02T03:24:10;1.23;;;1.10;;
7759;SDS011;3924;48.830;9.262;2023-07-02T03:26:40;1.10;;;1.03;;
7759;SDS011;3924;48.830;9.262;2023-07-02T03:29:07;2.23;;;0.90;;
7759;SDS011;3924;48.830;9.262;2023-07-02T03:31:33;0.67;;;0.67;;
7759;SDS011;3924;48.830;9.262;2023-07-02T03:34:03;1.53;;;1.20;;
7759;SDS011;3924;48.830;9.262;2023-07-02T03:36:32;2.27;;;1.20;;
7759;SDS011;3924;48.830;9.262;2023-07-02T03:38:59;2.53;;;1.23;;
7759;SDS011;3924;48.830;9.262;2023-07-02T03:41:26;8.37;;;1.30;;
7759;SDS011;3924;48.830;9.262;2023-07-02T03:43:52;1.30;;;1.20;;
7759;SDS011;3924;48.830;9.262;2023-07-02T03:46:19;1.27;;;1.17;;
7759;SDS011;3924;48.830;9.262;2023-07-02T03:48:46;3.90;;;1.30;;
7759;SDS011;3924;48.830;9.262;2023-07-02T03:51:12;2.03;;;1.33;;
7759;SDS011;3924;48.830;9.262;2023-07-02T03:53:41;8.20;;;1.30;;
7759;SDS011;3924;48.830;9.262;2023-07-02T03:56:07;2.70;;;1.40;;
7759;SDS011;3924;48.830;9.262;2023-07-02T03:58:34;1.07;;;1.00;;
7759;SDS011;3924;48.830;9.262;2023-07-02T04:01:01;1.90;;;1.00;;
7759;SDS011;3924;48.830;9.262;2023-07-02T04:03:28;2.03;;;1.50;;
7759;SDS011;3924;48.830;9.262;2023-07-02T04:05:54;1.40;;;1.30;;
7759;SDS011;3924;48.830;9.262;2023-07-02T04:08:21;1.60;;;1.50;;
7759;SDS011;3924;48.830;9.262;2023-07-02T04:10:48;1.67;;;1.40;;
7759;SDS011;3924;48.830;9.262;2023-07-02T04:13:15;5.67;;;2.33;;
7759;SDS011;3924;48.830;9.262;2023-07-02T04:15:42;1.43;;;1.33;;
7759;SDS011;3924;48.830;9.262;2023-07-02T04:18:08;3.53;;;1.63;;
7759;SDS011;3924;48.830;9.262;2023-07-02T04:20:35;3.43;;;1.60;;
7759;SDS011;3924;48.830;9.262;2023-07-02T04:23:05;2.83;;;1.90;;
7759;SDS011;3924;48.830;9.262;2023-07-02T04:25:32;3.33;;;1.80;;
7759;SDS011;3924;48.830;9.262;2023-07-02T04:28:19;1.73;;;1.60;;
7759;SDS011;3924;48.830;9.262;2023-07-02T04:30:46;3.50;;;1.90;;
7759;SDS011;3924;48.830;9.262;2023-07-02T04:33:16;2.17;;;1.67;;
7759;SDS011;3924;48.830;9.262;2023-07-02T04:35:43;3.70;;;1.60;;
7759;SDS011;3924;48.830;9.262;2023-07-02T04:38:10;3.63;;;1.33;;
7759;SDS011;3924;48.830;9.262;2023-07-02T04:40:38;3.23;;;1.80;;
7759;SDS011;3924;48.830;9.262;2023-07-02T04:43:05;2.03;;;1.33;;
7759;SDS011;3924;48.830;9.262;2023-07-02T04:45:32;1.67;;;1.50;;
7759;SDS011;3924;48.830;9.262;2023-07-02T04:48:06;1.60;;;1.50;;
7759;SDS011;3924;48.830;9.262;2023-07-02T04:50:32;3.27;;;1.47;;
7759;SDS011;3924;48.830;9.262;2023-07-02T04:52:59;2.10;;;1.90;;
7759;SDS011;3924;48.830;9.262;2023-07-02T04:55:26;1.63;;;1.53;;
7759;SDS011;3924;48.830;9.262;2023-07-02T04:57:53;9.13;;;1.80;;
7759;SDS011;3924;48.830;9.262;2023-07-02T05:00:20;2.73;;;1.70;;
7759;SDS011;3924;48.830;9.262;2023-07-02T05:02:48;1.70;;;1.60;;
7759;SDS011;3924;48.830;9.262;2023-07-02T05:05:15;1.20;;;1.13;;
7759;SDS011;3924;48.830;9.262;2023-07-02T05:07:42;1.43;;;1.27;;
7759;SDS011;3924;48.830;9.262;2023-07-02T05:10:09;2.57;;;1.40;;
7759;SDS011;3924;48.830;9.262;2023-07-02T05:12:36;2.43;;;1.90;;
7759;SDS011;3924;48.830;9.262;2023-07-02T05:15:02;4.17;;;1.40;;
7759;SDS011;3924;48.830;9.262;2023-07-02T05:17:29;1.93;;;1.50;;
7759;SDS011;3924;48.830;9.262;2023-07-02T05:19:57;2.10;;;1.50;;
7759;SDS011;3924;48.830;9.262;2023-07-02T05:22:23;2.47;;;1.50;;
7759;SDS011;3924;48.830;9.262;2023-07-02T05:24:50;2.77;;;1.60;;
7759;SDS011;3924;48.830;9.262;2023-07-02T05:27:16;3.80;;;1.43;;
7759;SDS011;3924;48.830;9.262;2023-07-02T05:29:44;2.30;;;1.50;;
7759;SDS011;3924;48.830;9.262;2023-07-02T05:32:10;2.73;;;1.50;;
7759;SDS011;3924;48.830;9.262;2023-07-02T05:34:37;1.93;;;1.40;;
7759;SDS011;3924;48.830;9.262;2023-07-02T05:37:04;4.57;;;1.40;;
7759;SDS011;3924;48.830;9.262;2023-07-02T05:39:33;2.87;;;1.30;;
7759;SDS011;3924;48.830;9.262;2023-07-02T05:42:00;2.53;;;1.40;;
7759;SDS011;3924;48.830;9.262;2023-07-02T05:44:26;1.87;;;1.60;;
7759;SDS011;3924;48.830;9.262;2023-07-02T05:46:53;5.30;;;1.70;;
7759;SDS011;3924;48.830;9.262;2023-07-02T05:49:20;2.90;;;1.77;;
7759;SDS011;3924;48.830;9.262;2023-07-02T05:51:46;2.23;;;1.50;;
7759;SDS011;3924;48.830;9.262;2023-07-02T05:54:13;1.87;;;1.40;;
7759;SDS011;3924;48.830;9.262;2023-07-02T05:56:40;2.30;;;1.90;;
7759;SDS011;3924;48.830;9.262;2023-07-02T05:59:06;1.43;;;1.33;;
7759;SDS011;3924;48.830;9.262;2023-07-02T06:01:33;2.13;;;1.60;;
7759;SDS011;3924;48.830;9.262;2023-07-02T06:03:59;4.77;;;2.23;;
7759;SDS011;3924;48.830;9.262;2023-07-02T06:06:26;3.37;;;1.60;;
7759;SDS011;3924;48.830;9.262;2023-07-02T06:08:53;3.20;;;2.30;;
7759;SDS011;3924;48.830;9.262;2023-07-02T06:11:19;3.27;;;1.70;;
7759;SDS011;3924;48.830;9.262;2023-07-02T06:13:46;2.53;;;1.87;;
7759;SDS011;3924;48.830;9.262;2023-07-02T06:16:12;2.37;;;2.17;;
7759;SDS011;3924;48.830;9.262;2023-07-02T06:18:39;2.47;;;1.50;;
7759;SDS011;3924;48.830;9.262;2023-07-02T06:21:06;2.90;;;2.23;;
7759;SDS011;3924;48.830;9.262;2023-07-02T06:23:39;5.70;;;2.23;;
7759;SDS011;3924;48.830;9.262;2023-07-02T06:26:07;2.00;;;1.80;;
7759;SDS011;3924;48.830;9.262;2023-07-02T06:28:34;1.70;;;1.60;;
7759;SDS011;3924;48.830;9.262;2023-07-02T06:31:01;2.17;;;1.80;;
7759;SDS011;3924;48.830;9.262;2023-07-02T06:33:28;7.63;;;2.63;;
7759;SDS011;3924;48.830;9.262;2023-07-02T06:35:54;6.13;;;1.93;;
7759;SDS011;3924;48.830;9.262;2023-07-02T06:38:21;3.23;;;2.37;;
7759;SDS011;3924;48.830;9.262;2023-07-02T06:40:47;3.17;;;2.50;;
7759;SDS011;3924;48.830;9.262;2023-07-02T06:43:14;4.17;;;2.70;;
7759;SDS011;3924;48.830;9.262;2023-07-02T06:45:41;5.67;;;2.60;;
7759;SDS011;3924;48.830;9.262;2023-07-02T06:48:08;6.20;;;2.20;;
7759;SDS011;3924;48.830;9.262;2023-07-02T06:50:35;8.57;;;3.03;;
7759;SDS011;3924;48.830;9.262;2023-07-02T06:53:01;3.50;;;2.20;;
7759;SDS011;3924;48.830;9.262;2023-07-02T06:55:28;9.50;;;2.60;;
7759;SDS011;3924;48.830;9.262;2023-07-02T06:57:54;3.37;;;2.47;;
7759;SDS011;3924;48.830;9.262;2023-07-02T07:00:21;3.47;;;2.57;;
7759;SDS011;3924;48.830;9.262;2023-07-02T07:02:48;5.53;;;1.90;;
7759;SDS011;3924;48.830;9.262;2023-07-02T07:05:14;5.60;;;2.20;;
7759;SDS011;3924;48.830;9.262;2023-07-02T07:07:41;4.93;;;2.20;;
7759;SDS011;3924;48.830;9.262;2023-07-02T07:10:07;6.37;;;3.33;;
7759;SDS011;3924;48.830;9.262;2023-07-02T07:12:34;4.50;;;2.37;;
7759;SDS011;3924;48.830;9.262;2023-07-02T07:15:01;8.97;;;2.53;;
7759;SDS011;3924;48.830;9.262;2023-07-02T07:17:29;4.37;;;2.47;;
7759;SDS011;3924;48.830;9.262;2023-07-02T07:19:55;3.97;;;2.10;;
7759;SDS011;3924;48.830;9.262;2023-07-02T07:22:22;4.57;;;2.80;;
7759;SDS011;3924;48.830;9.262;2023-07-02T07:24:48;4.03;;;2.87;;
7759;SDS011;3924;48.830;9.262;2023-07-02T07:27:15;3.43;;;2.80;;
7759;SDS011;3924;48.830;9.262;2023-07-02T07:29:42;7.00;;;3.33;;
7759;SDS011;3924;48.830;9.262;2023-07-02T07:32:08;2.03;;;1.27;;
7759;SDS011;3924;48.830;9.262;2023-07-02T07:34:35;3.70;;;2.43;;
7759;SDS011;3924;48.830;9.262;2023-07-02T07:37:02;4.37;;;2.53;;
7759;SDS011;3924;48.830;9.262;2023-07-02T07:39:28;7.70;;;3.90;;
7759;SDS011;3924;48.830;9.262;2023-07-02T07:41:55;2.83;;;2.30;;
7759;SDS011;3924;48.830;9.262;2023-07-02T07:44:21;6.13;;;3.80;;
7759;SDS011;3924;48.830;9.262;2023-07-02T07:46:48;8.10;;;3.40;;
7759;SDS011;3924;48.830;9.262;2023-07-02T07:49:14;5.33;;;3.37;;
7759;SDS011;3924;48.830;9.262;2023-07-02T07:51:41;6.47;;;3.63;;
7759;SDS011;3924;48.830;9.262;2023-07-02T07:54:08;10.83;;;2.77;;
7759;SDS011;3924;48.830;9.262;2023-07-02T07:56:34;10.10;;;4.70;;
7759;SDS011;3924;48.830;9.262;2023-07-02T07:59:01;7.10;;;3.03;;
7759;SDS011;3924;48.830;9.262;2023-07-02T08:01:28;7.90;;;3.77;;
7759;SDS011;3924;48.830;9.262;2023-07-02T08:03:55;6.40;;;3.47;;
7759;SDS011;3924;48.830;9.262;2023-07-02T08:06:22;1.73;;;1.43;;
7759;SDS011;3924;48.830;9.262;2023-07-02T08:08:49;3.53;;;2.27;;
7759;SDS011;3924;48.830;9.262;2023-07-02T08:11:16;5.73;;;3.27;;
7759;SDS011;3924;48.830;9.262;2023-07-02T08:13:45;7.70;;;3.83;;
7759;SDS011;3924;48.830;9.262;2023-07-02T08:16:11;5.10;;;3.40;;
7759;SDS011;3924;48.830;9.262;2023-07-02T08:18:39;11.13;;;5.63;;
7759;SDS011;3924;48.830;9.262;2023-07-02T08:21:06;5.87;;;3.80;;
7759;SDS011;3924;48.830;9.262;2023-07-02T08:23:33;6.20;;;3.27;;
7759;SDS011;3924;48.830;9.262;2023-07-02T08:25:59;7.37;;;4.37;;
7759;SDS011;3924;48.830;9.262;2023-07-02T08:28:26;5.77;;;3.90;;
7759;SDS011;3924;48.830;9.262;2023-07-02T08:30:53;11.47;;;4.43;;
7759;SDS011;3924;48.830;9.262;2023-07-02T08:33:19;13.00;;;4.93;;
7759;SDS011;3924;48.830;9.262;2023-07-02T08:35:46;10.07;;;4.17;;
7759;SDS011;3924;48.830;9.262;2023-07-02T08:38:16;6.40;;;4.00;;
7759;SDS011;3924;48.830;9.262;2023-07-02T08:40:42;10.30;;;4.03;;
7759;SDS011;3924;48.830;9.262;2023-07-02T08:43:09;4.40;;;2.57;;
7759;SDS011;3924;48.830;9.262;2023-07-02T08:45:36;10.40;;;4.87;;
7759;SDS011;3924;48.830;9.262;2023-07-02T08:48:02;8.77;;;3.30;;
7759;SDS011;3924;48.830;9.262;2023-07-02T08:50:29;7.43;;;4.50;;
7759;SDS011;3924;48.830;9.262;2023-07-02T08:52:56;9.77;;;4.07;;
7759;SDS011;3924;48.830;9.262;2023-07-02T08:55:23;8.70;;;3.90;;
7759;SDS011;3924;48.830;9.262;2023-07-02T08:57:51;8.57;;;4.27;;
7759;SDS011;3924;48.830;9.262;2023-07-02T09:00:19;14.87;;;4.57;;
7759;SDS011;3924;48.830;9.262;2023-07-02T09:02:47;5.50;;;2.77;;
7759;SDS011;3924;48.830;9.262;2023-07-02T09:05:14;5.50;;;3.47;;
7759;SDS011;3924;48.830;9.262;2023-07-02T09:07:44;4.50;;;3.53;;
7759;SDS011;3924;48.830;9.262;2023-07-02T09:10:12;10.20;;;4.10;;
7759;SDS011;3924;48.830;9.262;2023-07-02T09:12:39;6.97;;;3.33;;
7759;SDS011;3924;48.830;9.262;2023-07-02T09:15:05;9.13;;;4.47;;
7759;SDS011;3924;48.830;9.262;2023-07-02T09:17:33;5.40;;;2.87;;
7759;SDS011;3924;48.830;9.262;2023-07-02T09:20:06;5.43;;;3.90;;
7759;SDS011;3924;48.830;9.262;2023-07-02T09:22:35;8.73;;;3.80;;
7759;SDS011;3924;48.830;9.262;2023-07-02T09:25:02;7.37;;;3.37;;
7759;SDS011;3924;48.830;9.262;2023-07-02T09:27:33;5.97;;;3.03;;
7759;SDS011;3924;48.830;9.262;2023-07-02T09:30:09;7.13;;;3.73;;
7759;SDS011;3924;48.830;9.262;2023-07-02T09:32:42;4.53;;;4.00;;
7759;SDS011;3924;48.830;9.262;2023-07-02T09:35:11;8.33;;;4.20;;
7759;SDS011;3924;48.830;9.262;2023-07-02T09:37:39;4.57;;;3.63;;
7759;SDS011;3924;48.830;9.262;2023-07-02T09:40:09;5.40;;;2.80;;
7759;SDS011;3924;48.830;9.262;2023-07-02T09:42:36;7.40;;;4.07;;
7759;SDS011;3924;48.830;9.262;2023-07-02T09:45:05;6.27;;;4.30;;
7759;SDS011;3924;48.830;9.262;2023-07-02T09:47:35;4.50;;;2.80;;
7759;SDS011;3924;48.830;9.262;2023-07-02T09:50:09;6.20;;;3.63;;
7759;SDS011;3924;48.830;9.262;2023-07-02T09:52:38;6.00;;;3.27;;
7759;SDS011;3924;48.830;9.262;2023-07-02T09:55:12;8.20;;;3.40;;
7759;SDS011;3924;48.830;9.262;2023-07-02T09:57:38;7.63;;;3.93;;
7759;SDS011;3924;48.830;9.262;2023-07-02T10:00:07;4.43;;;3.37;;
7759;SDS011;3924;48.830;9.262;2023-07-02T10:02:34;4.10;;;3.07;;
7759;SDS011;3924;48.830;9.262;2023-07-02T10:05:02;6.20;;;3.10;;
7759;SDS011;3924;48.830;9.262;2023-07-02T10:07:30;4.33;;;3.37;;
7759;SDS011;3924;48.830;9.262;2023-07-02T10:09:58;14.87;;;3.93;;
7759;SDS011;3924;48.830;9.262;2023-07-02T10:12:26;7.03;;;3.53;;
7759;SDS011;3924;48.830;9.262;2023-07-02T10:14:57;8.10;;;3.70;;
7759;SDS011;3924;48.830;9.262;2023-07-02T10:19:52;5.67;;;3.70;;
7759;SDS011;3924;48.830;9.262;2023-07-02T10:22:20;8.90;;;3.80;;
7759;SDS011;3924;48.830;9.262;2023-07-02T10:24:53;6.07;;;3.50;;
7759;SDS011;3924;48.830;9.262;2023-07-02T10:27:40;7.57;;;3.70;;
7759;SDS011;3924;48.830;9.262;2023-07-02T10:30:08;11.60;;;4.20;;
7759;SDS011;3924;48.830;9.262;2023-07-02T10:32:36;7.13;;;4.00;;
7759;SDS011;3924;48.830;9.262;2023-07-02T10:35:14;5.70;;;3.63;;
7759;SDS011;3924;48.830;9.262;2023-07-02T10:37:42;7.80;;;3.90;;
7759;SDS011;3924;48.830;9.262;2023-07-02T10:40:09;9.23;;;3.97;;
7759;SDS011;3924;48.830;9.262;2023-07-02T10:42:50;4.17;;;3.57;;
7759;SDS011;3924;48.830;9.262;2023-07-02T10:45:18;7.93;;;4.60;;
7759;SDS011;3924;48.830;9.262;2023-07-02T10:47:45;4.77;;;3.53;;
7759;SDS011;3924;48.830;9.262;2023-07-02T10:50:15;7.87;;;3.43;;
7759;SDS011;3924;48.830;9.262;2023-07-02T10:52:43;8.83;;;3.87;;
7759;SDS011;3924;48.830;9.262;2023-07-02T10:55:09;7.00;;;4.27;;
7759;SDS011;3924;48.830;9.262;2023-07-02T10:57:36;4.00;;;2.57;;
7759;SDS011;3924;48.830;9.262;2023-07-02T11:00:06;7.17;;;3.23;;
7759;SDS011;3924;48.830;9.262;2023-07-02T11:02:37;7.07;;;5.03;;
7759;SDS011;3924;48.830;9.262;2023-07-02T11:05:05;8.67;;;4.17;;
7759;SDS011;3924;48.830;9.262;2023-07-02T11:07:39;9.53;;;3.60;;
7759;SDS011;3924;48.830;9.262;2023-07-02T11:10:07;11.03;;;4.50;;
7759;SDS011;3924;48.830;9.262;2023-07-02T11:12:35;3.23;;;2.50;;
7759;SDS011;3924;48.830;9.262;2023-07-02T11:17:36;6.63;;;3.87;;
7759;SDS011;3924;48.830;9.262;2023-07-02T11:20:04;6.63;;;3.73;;
7759;SDS011;3924;48.830;9.262;2023-07-02T11:22:32;7.77;;;4.97;;
7759;SDS011;3924;48.830;9.262;2023-07-02T11:25:09;11.70;;;4.40;;
7759;SDS011;3924;48.830;9.262;2023-07-02T11:27:40;8.30;;;3.90;;
7759;SDS011;3924;48.830;9.262;2023-07-02T11:30:07;5.53;;;3.30;;
7759;SDS011;3924;48.830;9.262;2023-07-02T11:32:55;5.27;;;4.03;;
7759;SDS011;3924;48.830;9.262;2023-07-02T11:35:21;8.03;;;4.07;;
7759;SDS011;3924;48.830;9.262;2023-07-02T11:37:59;7.27;;;4.07;;
7759;SDS011;3924;48.830;9.262;2023-07-02T11:40:26;6.53;;;3.73;;
7759;SDS011;3924;48.830;9.262;2023-07-02T11:42:52;4.87;;;3.33;;
7759;SDS011;3924;48.830;9.262;2023-07-02T11:45:19;8.53;;;4.50;;
7759;SDS011;3924;48.830;9.262;2023-07-02T11:47:46;11.40;;;3.77;;
7759;SDS011;3924;48.830;9.262;2023-07-02T11:50:12;7.10;;;3.63;;
7759;SDS011;3924;48.830;9.262;2023-07-02T11:52:59;5.73;;;3.97;;
7759;SDS011;3924;48.830;9.262;2023-07-02T11:55:30;4.93;;;3.67;;
7759;SDS011;3924;48.830;9.262;2023-07-02T11:57:56;3.80;;;2.90;;
7759;SDS011;3924;48.830;9.262;2023-07-02T12:00:23;3.70;;;2.30;;
7759;SDS011;3924;48.830;9.262;2023-07-02T12:02:49;8.83;;;4.03;;
7759;SDS011;3924;48.830;9.262;2023-07-02T12:05:16;11.00;;;4.60;;
7759;SDS011;3924;48.830;9.262;2023-07-02T12:07:43;6.13;;;3.97;;
7759;SDS011;3924;48.830;9.262;2023-07-02T12:10:10;9.90;;;4.40;;
7759;SDS011;3924;48.830;9.262;2023-07-02T12:12:37;5.07;;;4.00;;
7759;SDS011;3924;48.830;9.262;2023-07-02T12:15:04;5.53;;;3.57;;
7759;SDS011;3924;48.830;9.262;2023-07-02T12:17:31;4.53;;;3.10;;
7759;SDS011;3924;48.830;9.262;2023-07-02T12:19:58;8.03;;;3.97;;
7759;SDS011;3924;48.830;9.262;2023-07-02T12:22:27;5.57;;;4.37;;
7759;SDS011;3924;48.830;9.262;2023-07-02T12:24:53;9.67;;;4.00;;
7759;SDS011;3924;48.830;9.262;2023-07-02T12:27:22;8.30;;;4.47;;
7759;SDS011;3924;48.830;9.262;2023-07-02T12:29:49;7.10;;;3.40;;
7759;SDS011;3924;48.830;9.262;2023-07-02T12:32:15;5.70;;;3.50;;
7759;SDS011;3924;48.830;9.262;2023-07-02T12:34:42;2.77;;;2.23;;
7759;SDS011;3924;48.830;9.262;2023-07-02T12:37:09;9.97;;;4.37;;
7759;SDS011;3924;48.830;9.262;2023-07-02T12:39:35;5.30;;;2.83;;
7759;SDS011;3924;48.830;9.262;2023-07-02T12:42:02;5.37;;;3.17;;
7759;SDS011;3924;48.830;9.262;2023-07-02T12:44:29;3.77;;;2.47;;
7759;SDS011;3924;48.830;9.262;2023-07-02T12:46:56;11.23;;;5.00;;
7759;SDS011;3924;48.830;9.262;2023-07-02T12:49:22;7.80;;;4.50;;
7759;SDS011;3924;48.830;9.262;2023-07-02T12:51:49;3.10;;;2.80;;
7759;SDS011;3924;48.830;9.262;2023-07-02T12:54:15;5.53;;;3.23;;
7759;SDS011;3924;48.830;9.262;2023-07-02T12:56:42;4.97;;;3.53;;
7759;SDS011;3924;48.830;9.262;2023-07-02T12:59:08;6.80;;;4.80;;
7759;SDS011;3924;48.830;9.262;2023-07-02T13:01:35;7.07;;;4.00;;
7759;SDS011;3924;48.830;9.262;2023-07-02T13:04:02;3.30;;;1.97;;
7759;SDS011;3924;48.830;9.262;2023-07-02T13:06:30;9.80;;;4.63;;
7759;SDS011;3924;48.830;9.262;2023-07-02T13:09:00;6.93;;;3.87;;
7759;SDS011;3924;48.830;9.262;2023-07-02T13:11:27;7.53;;;3.57;;
7759;SDS011;3924;48.830;9.262;2023-07-02T13:13:54;4.27;;;2.77;;
7759;SDS011;3924;48.830;9.262;2023-07-02T13:16:21;3.73;;;2.77;;
7759;SDS011;3924;48.830;9.262;2023-07-02T13:18:48;11.70;;;4.57;;
7759;SDS011;3924;48.830;9.262;2023-07-02T13:21:15;6.57;;;4.37;;
7759;SDS011;3924;48.830;9.262;2023-07-02T13:23:45;9.83;;;5.07;;
7759;SDS011;3924;48.830;9.262;2023-07-02T13:26:11;5.23;;;2.50;;
7759;SDS011;3924;48.830;9.262;2023-07-02T13:28:38;8.07;;;3.83;;
7759;SDS011;3924;48.830;9.262;2023-07-02T13:31:04;6.67;;;4.20;;
7759;SDS011;3924;48.830;9.262;2023-07-02T13:33:31;6.47;;;4.00;;
7759;SDS011;3924;48.830;9.262;2023-07-02T13:35:58;9.07;;;5.00;;
7759;SDS011;3924;48.830;9.262;2023-07-02T13:38:24;7.67;;;4.30;;
7759;SDS011;3924;48.830;9.262;2023-07-02T13:40:51;7.63;;;3.87;;
7759;SDS011;3924;48.830;9.262;2023-07-02T13:43:18;5.17;;;3.20;;
7759;SDS011;3924;48.830;9.262;2023-07-02T13:45:45;8.33;;;4.20;;
7759;SDS011;3924;48.830;9.262;2023-07-02T13:48:12;3.83;;;3.07;;
7759;SDS011;3924;48.830;9.262;2023-07-02T13:50:38;2.93;;;1.97;;
7759;SDS011;3924;48.830;9.262;2023-07-02T13:53:05;7.93;;;4.23;;
7759;SDS011;3924;48.830;9.262;2023-07-02T13:55:34;6.50;;;3.27;;
7759;SDS011;3924;48.830;9.262;2023-07-02T13:58:00;4.77;;;2.77;;
7759;SDS011;3924;48.830;9.262;2023-07-02T14:00:27;7.30;;;3.37;;
7759;SDS011;3924;48.830;9.262;2023-07-02T14:02:55;5.63;;;3.67;;
7759;SDS011;3924;48.830;9.262;2023-07-02T14:05:22;5.40;;;3.60;;
7759;SDS011;3924;48.830;9.262;2023-07-02T14:07:49;6.10;;;2.60;;
7759;SDS011;3924;48.830;9.262;2023-07-02T14:10:17;4.97;;;2.80;;
7759;SDS011;3924;48.830;9.262;2023-07-02T14:12:44;6.10;;;3.67;;
7759;SDS011;3924;48.830;9.262;2023-07-02T14:15:11;4.47;;;2.93;;
7759;SDS011;3924;48.830;9.262;2023-07-02T14:17:38;8.53;;;4.50;;
7759;SDS011;3924;48.830;9.262;2023-07-02T14:20:06;5.43;;;3.97;;
7759;SDS011;3924;48.830;9.262;2023-07-02T14:22:34;18.77;;;4.57;;
7759;SDS011;3924;48.830;9.262;2023-07-02T14:25:01;4.73;;;3.60;;
7759;SDS011;3924;48.830;9.262;2023-07-02T14:27:30;7.53;;;3.87;;
7759;SDS011;3924;48.830;9.262;2023-07-02T14:29:57;10.63;;;4.03;;
7759;SDS011;3924;48.830;9.262;2023-07-02T14:32:27;7.57;;;3.90;;
7759;SDS011;3924;48.830;9.262;2023-07-02T14:34:54;6.53;;;4.17;;
7759;SDS011;3924;48.830;9.262;2023-07-02T14:37:21;5.13;;;3.10;;
7759;SDS011;3924;48.830;9.262;2023-07-02T14:39:48;6.87;;;3.27;;
7759;SDS011;3924;48.830;9.262;2023-07-02T14:42:32;7.60;;;3.77;;
7759;SDS011;3924;48.830;9.262;2023-07-02T14:44:58;5.90;;;3.30;;
7759;SDS011;3924;48.830;9.262;2023-07-02T14:47:25;6.27;;;3.57;;
7759;SDS011;3924;48.830;9.262;2023-07-02T14:49:51;12.30;;;4.43;;
7759;SDS011;3924;48.830;9.262;2023-07-02T14:52:18;3.40;;;3.03;;
7759;SDS011;3924;48.830;9.262;2023-07-02T14:54:45;6.73;;;4.67;;
7759;SDS011;3924;48.830;9.262;2023-07-02T14:57:12;4.77;;;4.10;;
7759;SDS011;3924;48.830;9.262;2023-07-02T14:59:39;5.53;;;3.20;;
7759;SDS011;3924;48.830;9.262;2023-07-02T15:02:05;2.23;;;1.93;;
7759;SDS011;3924;48.830;9.262;2023-07-02T15:04:32;7.90;;;4.17;;
7759;SDS011;3924;48.830;9.262;2023-07-02T15:06:59;3.87;;;2.97;;
7759;SDS011;3924;48.830;9.262;2023-07-02T15:09:37;2.30;;;1.73;;
7759;SDS011;3924;48.830;9.262;2023-07-02T15:12:07;5.87;;;3.63;;
7759;SDS011;3924;48.830;9.262;2023-07-02T15:14:34;6.17;;;3.60;;
7759;SDS011;3924;48.830;9.262;2023-07-02T15:17:01;8.30;;;4.20;;
7759;SDS011;3924;48.830;9.262;2023-07-02T15:19:28;9.00;;;4.13;;
7759;SDS011;3924;48.830;9.262;2023-07-02T15:21:58;8.47;;;4.40;;
7759;SDS011;3924;48.830;9.262;2023-07-02T15:24:29;11.47;;;4.87;;
7759;SDS011;3924;48.830;9.262;2023-07-02T15:26:58;5.63;;;3.90;;